Time;durP1;ratioP1;P1;durP2;ratioP2;P2;SDS_P1;SDS_P2;PMS_P1;PMS_P2;Temp;Humidity;BMP_temperature;BMP_pressure;BME280_temperature;BME280_humidity;BME280_pressure;Samples;Min_cycle;Max_cycle;Signal;HPM_P1;HPM_P2
2022/03/18 00:01:10;;;;;;;;;;;;;;;21.25;43.65;103139.59;5073109;28;4300;-68
2022/03/18 00:03:37;;;;;;;;;;;;;;;21.25;43.68;103142.47;5080125;28;4360;-68
2022/03/18 00:06:03;;;;;;;;;;;;;;;21.25;43.71;103139.59;5074104;28;5350;-67
2022/03/18 00:08:30;;;;;;;;;;;;;;;21.24;43.86;103143.84;5074916;28;5704;-68
2022/03/18 00:10:56;;;;;;;;;;;;;;;21.23;43.88;103148.06;5076014;28;4080;-68
2022/03/18 00:13:22;;;;;;;;;;;;;;;21.24;43.67;103152.50;5071528;28;5201;-67
2022/03/18 00:15:49;;;;;;;;;;;;;;;21.24;43.47;103151.75;5076240;28;5503;-68
2022/03/18 00:18:16;;;;;;;;;;;;;;;21.28;43.34;103158.59;5073932;28;4256;-68
2022/03/18 00:20:42;;;;;;;;;;;;;;;21.27;43.46;103154.16;5075158;28;4230;-68
2022/03/18 00:23:08;;;;;;;;;;;;;;;21.31;43.28;103156.63;5076535;28;4222;-67
2022/03/18 00:25:35;;;;;;;;;;;;;;;21.31;43.39;103157.38;5073662;28;4093;-68
2022/03/18 00:28:01;;;;;;;;;;;;;;;21.33;43.35;103159.66;5074378;28;4187;-68
2022/03/18 00:30:27;;;;;;;;;;;;;;;21.34;43.04;103158.28;5074391;28;4111;-68
2022/03/18 00:32:56;;;;;;;;;;;;;;;21.30;43.62;103167.41;5070731;28;4194;-67
2022/03/18 00:35:34;;;;;;;;;;;;;;;21.32;43.18;103164.66;5074332;28;4170;-66
2022/03/18 00:38:02;;;;;;;;;;;;;;;21.33;43.42;103171.19;5073379;27;4209;-67
2022/03/18 00:40:29;;;;;;;;;;;;;;;21.34;43.12;103159.03;5078580;28;4189;-67
2022/03/18 00:42:56;;;;;;;;;;;;;;;21.34;43.40;103169.81;5076495;28;4298;-66
2022/03/18 00:45:23;;;;;;;;;;;;;;;21.34;43.18;103161.94;5068982;28;4167;-67
2022/03/18 00:53:19;;;;;;;;;;;;;;;21.32;43.38;103170.41;5075864;28;4161;-67
2022/03/18 00:55:46;;;;;;;;;;;;;;;21.32;43.37;103176.19;5076044;28;4267;-67
2022/03/18 00:58:12;;;;;;;;;;;;;;;21.31;43.23;103180.44;5073319;28;5456;-67
2022/03/18 01:00:39;;;;;;;;;;;;;;;21.32;43.45;103175.41;5070665;28;4154;-67
2022/03/18 01:03:05;;;;;;;;;;;;;;;21.32;43.35;103176.19;5073684;28;4183;-66
2022/03/18 01:05:33;;;;;;;;;;;;;;;21.32;43.32;103175.41;5072808;27;4083;-67
2022/03/18 01:07:59;;;;;;;;;;;;;;;21.31;43.43;103174.66;5071617;28;4456;-67
2022/03/18 01:10:26;;;;;;;;;;;;;;;21.31;43.29;103180.44;5073939;28;4517;-68
2022/03/18 01:12:52;;;;;;;;;;;;;;;21.28;43.45;103181.63;5071290;28;4259;-67
2022/03/18 01:15:19;;;;;;;;;;;;;;;21.26;43.42;103177.84;5072588;28;4197;-67
2022/03/18 01:17:45;;;;;;;;;;;;;;;21.23;43.59;103182.66;5074854;28;4429;-66
2022/03/18 01:20:12;;;;;;;;;;;;;;;21.25;43.47;103194.34;5074907;28;4422;-66
2022/03/18 01:22:39;;;;;;;;;;;;;;;21.25;43.55;103194.34;5068952;28;4133;-66
2022/03/18 01:25:05;;;;;;;;;;;;;;;21.24;43.41;103195.72;5074152;27;4325;-67
2022/03/18 01:27:31;;;;;;;;;;;;;;;21.24;43.69;103187.06;5073981;27;4158;-67
2022/03/18 01:29:58;;;;;;;;;;;;;;;21.23;43.61;103197.06;5075502;28;4089;-67
2022/03/18 01:32:24;;;;;;;;;;;;;;;21.23;43.52;103202.06;5072258;28;4223;-66
2022/03/18 01:34:50;;;;;;;;;;;;;;;21.20;43.63;103201.16;5076170;28;5536;-66
2022/03/18 01:37:17;;;;;;;;;;;;;;;21.20;43.59;103209.81;5068186;28;4122;-66
2022/03/18 01:39:43;;;;;;;;;;;;;;;21.20;43.68;103209.81;5072395;28;4223;-68
2022/03/18 01:42:09;;;;;;;;;;;;;;;21.22;43.37;103207.09;5075682;28;4410;-66
2022/03/18 01:44:42;;;;;;;;;;;;;;;21.21;43.41;103211.34;5074422;28;4226;-67
2022/03/18 01:47:09;;;;;;;;;;;;;;;21.22;43.39;103212.84;5070348;28;4192;-67
2022/03/18 01:49:35;;;;;;;;;;;;;;;21.25;43.15;103210.88;5071274;28;4279;-67
2022/03/18 01:52:01;;;;;;;;;;;;;;;21.26;43.06;103223.94;5074899;28;5486;-67
2022/03/18 01:57:14;;;;;;;;;;;;;;;21.26;43.39;103218.19;5074366;28;5120;-67
2022/03/18 01:59:41;;;;;;;;;;;;;;;21.27;43.18;103219.69;5069638;28;4111;-67
2022/03/18 02:02:08;;;;;;;;;;;;;;;21.26;43.23;103221.81;5072012;28;4086;-67
2022/03/18 02:04:35;;;;;;;;;;;;;;;21.26;43.48;103227.59;5075200;28;4171;-67
2022/03/18 02:07:02;;;;;;;;;;;;;;;21.26;43.56;103227.59;5068774;28;4325;-67
2022/03/18 02:09:29;;;;;;;;;;;;;;;21.25;43.42;103233.94;5069918;28;5527;-67
2022/03/18 02:11:55;;;;;;;;;;;;;;;21.25;43.50;103228.19;5066902;28;4224;-66
2022/03/18 02:14:34;;;;;;;;;;;;;;;21.25;43.37;103240.47;5075585;28;4245;-66
2022/03/18 02:17:15;;;;;;;;;;;;;;;21.25;43.35;103246.22;5070343;28;4114;-67
2022/03/18 02:19:42;;;;;;;;;;;;;;;21.24;43.47;103250.47;5072761;28;5239;-66
2022/03/18 02:22:12;;;;;;;;;;;;;;;21.24;43.23;103244.72;5072214;28;4288;-67
2022/03/18 02:24:39;;;;;;;;;;;;;;;21.25;43.33;103245.47;5069916;28;4168;-67
2022/03/18 02:27:05;;;;;;;;;;;;;;;21.25;43.43;103251.22;5071016;28;5716;-67
2022/03/18 02:29:32;;;;;;;;;;;;;;;21.24;43.34;103247.59;5070034;27;4096;-67
2022/03/18 02:31:58;;;;;;;;;;;;;;;21.22;43.40;103241.66;5069575;28;4288;-67
2022/03/18 02:34:25;;;;;;;;;;;;;;;21.22;43.40;103253.19;5074360;28;4202;-67
2022/03/18 02:36:52;;;;;;;;;;;;;;;21.22;43.40;103258.19;5073332;28;4130;-66
2022/03/18 02:39:18;;;;;;;;;;;;;;;21.20;43.60;103261.66;5068082;28;4340;-67
2022/03/18 02:41:44;;;;;;;;;;;;;;;21.19;43.45;103260.16;5071279;28;4181;-67
2022/03/18 02:44:11;;;;;;;;;;;;;;;21.20;43.41;103260.91;5072234;28;4258;-67
2022/03/18 02:46:37;;;;;;;;;;;;;;;21.19;43.39;103273.78;5069667;28;4333;-67
2022/03/18 02:49:04;;;;;;;;;;;;;;;21.17;43.46;103271.50;5071966;28;4819;-67
2022/03/18 02:51:30;;;;;;;;;;;;;;;21.17;43.36;103274.41;5076408;28;4094;-67
2022/03/18 02:53:56;;;;;;;;;;;;;;;21.16;43.58;103277.88;5075933;28;5235;-67
2022/03/18 02:56:23;;;;;;;;;;;;;;;21.15;43.41;103280.00;5075328;28;5237;-67
2022/03/18 02:58:49;;;;;;;;;;;;;;;21.15;43.43;103276.34;5078526;28;4245;-67
2022/03/18 03:01:16;;;;;;;;;;;;;;;21.15;43.50;103277.13;5074054;28;4033;-67
2022/03/18 03:03:42;;;;;;;;;;;;;;;21.15;43.36;103285.75;5079763;28;4366;-67
2022/03/18 03:08:54;;;;;;;;;;;;;;;21.19;43.29;103300.50;5077611;28;4276;-67
2022/03/18 03:11:22;;;;;;;;;;;;;;;21.20;43.07;103295.50;5068717;28;4932;-67
2022/03/18 03:13:49;;;;;;;;;;;;;;;21.21;42.94;103306.44;5073211;28;4234;-67
2022/03/18 03:16:15;;;;;;;;;;;;;;;21.19;43.35;103309.16;5078408;28;4317;-67
2022/03/18 03:18:42;;;;;;;;;;;;;;;21.18;43.17;103309.72;5074199;28;5372;-67
2022/03/18 03:21:08;;;;;;;;;;;;;;;21.21;43.38;103312.19;5070790;28;4086;-66
2022/03/18 03:23:36;;;;;;;;;;;;;;;21.20;43.22;103319.31;5078088;27;4265;-67
2022/03/18 03:26:03;;;;;;;;;;;;;;;21.21;43.20;103320.06;5079371;28;4166;-67
2022/03/18 03:28:29;;;;;;;;;;;;;;;21.22;43.37;103324.47;5079787;28;4556;-67
2022/03/18 03:30:55;;;;;;;;;;;;;;;21.21;43.44;103326.59;5073688;28;4215;-67
2022/03/18 03:33:22;;;;;;;;;;;;;;;21.20;43.40;103325.06;5072588;28;4211;-67
2022/03/18 03:35:52;;;;;;;;;;;;;;;21.20;43.25;103332.97;5073644;28;4221;-67
2022/03/18 03:38:19;;;;;;;;;;;;;;;21.20;43.18;103336.59;5075778;28;4191;-67
2022/03/18 03:40:45;;;;;;;;;;;;;;;21.20;43.31;103336.59;5075807;28;5272;-67
2022/03/18 03:43:12;;;;;;;;;;;;;;;21.20;43.19;103339.47;5076472;28;4628;-67
2022/03/18 03:45:39;;;;;;;;;;;;;;;21.21;43.11;103340.22;5077436;28;4263;-67
2022/03/18 03:48:05;;;;;;;;;;;;;;;21.20;43.25;103342.34;5077200;28;5091;-67
2022/03/18 03:50:32;;;;;;;;;;;;;;;21.22;43.32;103341.78;5074567;28;4220;-67
2022/03/18 03:52:58;;;;;;;;;;;;;;;21.19;43.29;103346.59;5078887;28;4293;-68
2022/03/18 03:55:25;;;;;;;;;;;;;;;21.20;43.39;103342.34;5071706;28;4695;-67
2022/03/18 03:57:51;;;;;;;;;;;;;;;21.19;43.52;103340.84;5079100;28;4217;-67
2022/03/18 04:00:17;;;;;;;;;;;;;;;21.21;43.66;103349.66;5076496;28;4200;-67
2022/03/18 04:02:44;;;;;;;;;;;;;;;21.20;43.56;103353.88;5076933;28;4154;-67
2022/03/18 04:05:10;;;;;;;;;;;;;;;21.18;43.52;103353.72;5076483;28;4974;-67
2022/03/18 04:07:37;;;;;;;;;;;;;;;21.18;43.64;103356.59;5071979;28;5322;-67
2022/03/18 04:10:04;;;;;;;;;;;;;;;21.20;43.69;103359.66;5071855;28;4143;-68
2022/03/18 04:12:32;;;;;;;;;;;;;;;21.20;43.71;103364.66;5076282;28;4033;-67
2022/03/18 04:14:59;;;;;;;;;;;;;;;21.20;43.67;103370.41;5078146;28;4103;-67
2022/03/18 04:17:28;;;;;;;;;;;;;;;21.20;43.71;103374.06;5073359;28;4810;-67
2022/03/18 04:19:55;;;;;;;;;;;;;;;21.22;43.64;103385.75;5074256;28;4197;-66
2022/03/18 04:22:21;;;;;;;;;;;;;;;21.21;43.60;103372.72;5071082;28;4229;-67
2022/03/18 04:24:47;;;;;;;;;;;;;;;21.20;43.75;103379.81;5076856;28;4204;-66
2022/03/18 04:27:13;;;;;;;;;;;;;;;21.20;43.64;103382.69;5070302;27;5443;-66
2022/03/18 04:29:40;;;;;;;;;;;;;;;21.19;43.67;103392.72;5076502;28;4575;-66
2022/03/18 04:32:06;;;;;;;;;;;;;;;21.18;43.61;103391.19;5071983;27;5260;-67
2022/03/18 04:34:33;;;;;;;;;;;;;;;21.21;43.50;103394.97;5071970;28;4073;-66
2022/03/18 04:36:59;;;;;;;;;;;;;;;21.21;43.46;103404.41;5073898;28;4610;-66
2022/03/18 04:39:25;;;;;;;;;;;;;;;21.22;43.44;103394.41;5069088;28;4094;-67
2022/03/18 04:41:52;;;;;;;;;;;;;;;21.23;43.26;103395.91;5074998;28;4209;-66
2022/03/18 04:44:19;;;;;;;;;;;;;;;21.22;43.34;103413.81;5076236;28;4532;-67
2022/03/18 04:46:48;;;;;;;;;;;;;;;21.21;43.43;103413.06;5076247;28;3995;-67
2022/03/18 04:49:14;;;;;;;;;;;;;;;21.20;43.47;103413.66;5076122;28;5295;-67
2022/03/18 04:51:40;;;;;;;;;;;;;;;21.20;43.73;103417.28;5077142;28;4050;-66
2022/03/18 04:54:07;;;;;;;;;;;;;;;21.20;43.61;103420.16;5076102;28;4236;-67
2022/03/18 04:59:19;;;;;;;;;;;;;;;21.23;43.63;103432.63;5072089;28;4196;-67
2022/03/18 05:01:46;;;;;;;;;;;;;;;21.23;43.39;103421.84;5069845;28;4274;-66
2022/03/18 05:04:12;;;;;;;;;;;;;;;21.23;43.56;103439.16;5074884;28;4245;-67
2022/03/18 05:06:39;;;;;;;;;;;;;;;21.22;43.41;103436.88;5065878;28;5482;-67
2022/03/18 05:09:05;;;;;;;;;;;;;;;21.23;43.40;103444.16;5073180;27;4120;-68
2022/03/18 05:11:32;;;;;;;;;;;;;;;21.23;43.29;103450.66;5069648;28;4501;-67
2022/03/18 05:13:58;;;;;;;;;;;;;;;21.25;43.37;103450.09;5076209;28;4397;-67
2022/03/18 05:16:27;;;;;;;;;;;;;;;21.24;43.44;103457.97;5066721;28;5286;-67
2022/03/18 05:18:54;;;;;;;;;;;;;;;21.28;43.26;103461.22;5067823;28;5250;-68
2022/03/18 05:21:20;;;;;;;;;;;;;;;21.27;43.45;103473.31;5070686;28;4069;-68
2022/03/18 05:23:47;;;;;;;;;;;;;;;21.24;43.39;103469.50;5074014;28;4411;-67
2022/03/18 05:26:13;;;;;;;;;;;;;;;21.23;43.49;103472.97;5068959;28;4172;-68
2022/03/18 05:28:40;;;;;;;;;;;;;;;21.23;43.46;103478.72;5071662;28;4164;-68
2022/03/18 05:31:06;;;;;;;;;;;;;;;21.22;43.46;103483.75;5076816;27;4205;-67
2022/03/18 05:33:33;;;;;;;;;;;;;;;21.25;43.32;103493.31;5069256;28;4161;-68
2022/03/18 05:36:00;;;;;;;;;;;;;;;21.24;43.57;103498.31;5069829;28;4212;-67
2022/03/18 05:38:26;;;;;;;;;;;;;;;21.23;43.39;103502.53;5067674;27;5380;-67
2022/03/18 05:40:53;;;;;;;;;;;;;;;21.24;43.52;103509.84;5070093;28;4223;-67
2022/03/18 05:43:19;;;;;;;;;;;;;;;21.25;43.30;103507.72;5069950;28;4446;-67
2022/03/18 05:45:45;;;;;;;;;;;;;;;21.24;43.39;103504.09;5073853;28;4195;-67
2022/03/18 05:48:12;;;;;;;;;;;;;;;21.27;43.37;103510.78;5067396;28;4527;-67
2022/03/18 05:50:38;;;;;;;;;;;;;;;21.24;43.29;103515.63;5069421;28;4180;-67
2022/03/18 05:53:05;;;;;;;;;;;;;;;21.24;43.36;103527.16;5073285;28;5425;-68
2022/03/18 05:56:52;;;;;;;;;;;;;;;21.23;43.28;103528.47;5073206;28;5537;-67
2022/03/18 05:58:18;;;;;;;;;;;;;;;21.27;43.23;103531.72;5070724;27;4256;-67
2022/03/18 06:00:45;;;;;;;;;;;;;;;21.28;42.97;103539.03;5063274;28;4257;-65
2022/03/18 06:03:12;;;;;;;;;;;;;;;21.25;43.29;103545.94;5056749;28;6281;-58
2022/03/18 06:05:39;;;;;;;;;;;;;;;20.93;41.60;103553.31;5073050;28;5340;-58
2022/03/18 06:13:35;;;;;;;;;;;;;;;21.27;42.19;103549.00;5065863;28;4155;-59
2022/03/18 06:16:02;;;;;;;;;;;;;;;21.32;42.59;103553.00;5078020;28;4233;-59
2022/03/18 06:18:42;;;;;;;;;;;;;;;21.38;43.05;103552.78;5071782;28;4174;-59
2022/03/18 06:21:09;;;;;;;;;;;;;;;21.37;43.11;103563.53;5073826;28;5266;-59
2022/03/18 06:23:36;;;;;;;;;;;;;;;21.42;43.14;103556.03;5075658;28;4132;-59
2022/03/18 06:26:02;;;;;;;;;;;;;;;21.34;42.97;103565.47;5076696;28;4022;-57
2022/03/18 06:28:28;;;;;;;;;;;;;;;21.42;43.43;103558.91;5074600;28;4192;-57
2022/03/18 06:30:55;;;;;;;;;;;;;;;21.33;42.69;103574.72;5074482;28;4209;-58
2022/03/18 06:33:22;;;;;;;;;;;;;;;21.30;43.14;103576.69;5070694;27;4188;-57
2022/03/18 06:35:48;;;;;;;;;;;;;;;21.31;42.90;103578.19;5075751;28;5309;-57
2022/03/18 06:38:14;;;;;;;;;;;;;;;21.33;42.94;103587.00;5076069;28;4306;-57
2022/03/18 06:40:42;;;;;;;;;;;;;;;21.33;42.68;103589.13;5074810;28;4294;-57
2022/03/18 06:43:10;;;;;;;;;;;;;;;21.34;42.56;103593.53;5072856;27;4240;-57
2022/03/18 06:45:36;;;;;;;;;;;;;;;21.31;42.60;103592.59;5074948;28;4461;-58
2022/03/18 06:48:03;;;;;;;;;;;;;;;21.31;42.40;103601.25;5076982;28;4206;-57
2022/03/18 06:50:29;;;;;;;;;;;;;;;21.33;42.49;103598.53;5074258;28;4399;-58
2022/03/18 06:52:55;;;;;;;;;;;;;;;21.27;42.18;103609.53;5071867;28;4219;-57
2022/03/18 06:55:22;;;;;;;;;;;;;;;21.28;42.14;103616.06;5068812;27;4773;-57
2022/03/18 06:57:48;;;;;;;;;;;;;;;20.90;42.31;103611.38;5072798;28;4232;-56
2022/03/18 07:00:15;;;;;;;;;;;;;;;20.44;42.39;103609.47;5072860;28;4137;-57
2022/03/18 07:02:42;;;;;;;;;;;;;;;20.50;41.74;103612.13;5072313;28;4359;-57
2022/03/18 07:05:09;;;;;;;;;;;;;;;20.79;41.35;103612.56;5073381;28;5265;-58
2022/03/18 07:07:36;;;;;;;;;;;;;;;20.56;41.04;103620.56;5073584;28;4186;-59
2022/03/18 07:10:02;;;;;;;;;;;;;;;20.21;37.43;103628.97;5074397;28;5493;-57
2022/03/18 07:12:29;;;;;;;;;;;;;;;20.56;38.48;103629.97;5071675;28;5410;-58
2022/03/18 07:14:56;;;;;;;;;;;;;;;20.56;39.01;103632.88;5073714;28;4142;-59
2022/03/18 07:20:08;;;;;;;;;;;;;;;20.68;38.33;103633.19;5069469;28;4096;-58
2022/03/18 07:22:34;;;;;;;;;;;;;;;20.82;38.64;103631.59;5074929;28;4211;-59
2022/03/18 07:25:00;;;;;;;;;;;;;;;20.85;39.36;103641.94;5078267;28;4241;-59
2022/03/18 07:27:28;;;;;;;;;;;;;;;20.92;39.80;103635.34;5073677;28;4292;-59
2022/03/18 07:30:00;;;;;;;;;;;;;;;20.41;37.75;103633.69;5073907;28;5478;-58
2022/03/18 07:32:26;;;;;;;;;;;;;;;20.57;38.16;103639.38;5071202;28;4247;-58
2022/03/18 07:34:53;;;;;;;;;;;;;;;20.75;39.40;103649.66;5074629;28;5753;-58
2022/03/18 07:37:19;;;;;;;;;;;;;;;20.85;39.63;103644.06;5075604;28;5636;-58
2022/03/18 07:39:45;;;;;;;;;;;;;;;20.86;39.93;103660.72;5079063;28;4654;-58
2022/03/18 07:42:13;;;;;;;;;;;;;;;20.88;40.07;103655.16;5081449;28;4540;-58
2022/03/18 07:44:39;;;;;;;;;;;;;;;20.92;40.24;103658.41;5079986;28;5479;-58
2022/03/18 07:47:05;;;;;;;;;;;;;;;20.92;40.36;103663.41;5079491;28;6144;-58
2022/03/18 07:49:32;;;;;;;;;;;;;;;20.90;40.45;103678.38;5079770;28;4637;-58
2022/03/18 07:51:58;;;;;;;;;;;;;;;20.93;40.43;103671.44;5079363;28;5309;-59
2022/03/18 07:54:25;;;;;;;;;;;;;;;20.95;40.87;103678.75;5078326;28;4123;-58
2022/03/18 07:56:51;;;;;;;;;;;;;;;20.98;40.61;103674.69;5076376;28;5789;-59
2022/03/18 07:59:17;;;;;;;;;;;;;;;20.97;40.93;103670.28;5077332;28;5304;-59
2022/03/18 08:01:44;;;;;;;;;;;;;;;20.99;40.79;103677.00;5079862;28;5587;-59
2022/03/18 08:04:12;;;;;;;;;;;;;;;21.00;40.95;103680.63;5079152;28;4395;-59
2022/03/18 08:06:39;;;;;;;;;;;;;;;21.00;41.06;103678.50;5079066;28;5482;-58
2022/03/18 08:09:05;;;;;;;;;;;;;;;21.00;41.19;103687.16;5079402;28;4165;-59
2022/03/18 08:11:32;;;;;;;;;;;;;;;21.00;41.14;103686.38;5077054;28;4178;-58
2022/03/18 08:13:58;;;;;;;;;;;;;;;20.99;41.16;103690.63;5107854;27;5263;-58
2022/03/18 08:16:26;;;;;;;;;;;;;;;21.00;41.53;103695.03;5079625;28;4670;-58
2022/03/18 08:18:54;;;;;;;;;;;;;;;21.00;41.54;103698.69;5079725;28;5695;-58
2022/03/18 08:21:20;;;;;;;;;;;;;;;21.01;41.52;103694.47;5079066;28;5587;-58
2022/03/18 08:23:47;;;;;;;;;;;;;;;21.04;41.44;103698.28;5079388;28;6332;-58
2022/03/18 08:26:13;;;;;;;;;;;;;;;21.06;41.64;103701.34;5072935;28;5512;-58
2022/03/18 08:28:39;;;;;;;;;;;;;;;21.07;41.57;103702.88;5079826;28;5655;-58
2022/03/18 08:31:07;;;;;;;;;;;;;;;21.06;41.61;103707.13;5076923;28;5351;-58
2022/03/18 08:33:34;;;;;;;;;;;;;;;21.07;41.62;103697.09;5077649;28;6126;-58
2022/03/18 08:36:00;;;;;;;;;;;;;;;21.08;41.82;103710.94;5075884;28;5277;-58
2022/03/18 08:38:27;;;;;;;;;;;;;;;21.08;41.44;103707.28;5070882;28;4743;-60
2022/03/18 08:40:53;;;;;;;;;;;;;;;20.93;40.97;103716.78;5068943;28;4221;-67
2022/03/18 08:43:19;;;;;;;;;;;;;;;21.17;41.12;103723.19;5070547;28;5508;-60
2022/03/18 08:45:46;;;;;;;;;;;;;;;21.20;41.42;103728.53;5074154;28;4127;-68
2022/03/18 08:48:12;;;;;;;;;;;;;;;21.32;41.17;103729.59;5077639;28;5320;-62
2022/03/18 08:50:39;;;;;;;;;;;;;;;21.34;41.51;103731.91;5074630;28;4253;-63
2022/03/18 08:53:09;;;;;;;;;;;;;;;21.38;41.68;103743.81;5076156;28;4182;-62
2022/03/18 08:55:40;;;;;;;;;;;;;;;21.37;41.58;103753.78;5075168;28;4841;-64
2022/03/18 08:58:09;;;;;;;;;;;;;;;21.41;41.58;103753.41;5090161;27;5298;-61
2022/03/18 09:00:36;;;;;;;;;;;;;;;20.92;40.50;103744.06;5072691;28;4076;-60
2022/03/18 09:03:02;;;;;;;;;;;;;;;21.12;40.00;103745.13;5076930;28;5719;-59
2022/03/18 09:05:30;;;;;;;;;;;;;;;21.17;41.01;103749.88;5064920;28;4082;-58
2022/03/18 09:07:56;;;;;;;;;;;;;;;21.22;41.25;103754.66;5071819;28;4806;-61
2022/03/18 09:10:24;;;;;;;;;;;;;;;21.21;41.44;103753.13;5075063;28;4252;-61
2022/03/18 09:12:58;;;;;;;;;;;;;;;21.23;41.33;103753.28;5069656;28;5153;-61
2022/03/18 09:15:25;;;;;;;;;;;;;;;21.24;41.70;103751.19;5074335;28;5257;-61
2022/03/18 09:17:51;;;;;;;;;;;;;;;21.23;41.66;103756.19;5069530;28;5445;-61
2022/03/18 09:20:18;;;;;;;;;;;;;;;21.24;41.95;103769.25;5073401;28;5597;-59
2022/03/18 09:22:44;;;;;;;;;;;;;;;21.23;41.96;103769.81;5071483;28;4630;-58
2022/03/18 09:25:10;;;;;;;;;;;;;;;21.27;41.93;103770.94;5070456;28;5639;-58
2022/03/18 09:27:37;;;;;;;;;;;;;;;21.24;42.02;103763.50;5076364;28;4269;-61
2022/03/18 09:30:10;;;;;;;;;;;;;;;21.26;42.03;103766.56;5077309;28;4137;-61
2022/03/18 09:32:36;;;;;;;;;;;;;;;21.29;42.19;103773.25;5077426;28;4488;-61
2022/03/18 09:35:03;;;;;;;;;;;;;;;21.30;42.05;103766.91;5074613;28;5543;-61
2022/03/18 09:37:29;;;;;;;;;;;;;;;21.28;42.42;103769.63;5074890;28;5679;-61
2022/03/18 09:39:56;;;;;;;;;;;;;;;21.28;41.90;103766.72;5073171;28;5599;-60
2022/03/18 09:42:55;;;;;;;;;;;;;;;21.34;41.87;103773.03;5073611;28;4294;-59
2022/03/18 09:45:22;;;;;;;;;;;;;;;21.29;42.12;103785.56;5070328;28;4259;-58
2022/03/18 09:47:48;;;;;;;;;;;;;;;21.40;42.11;103783.59;5075573;28;4205;-60
2022/03/18 09:50:15;;;;;;;;;;;;;;;21.47;41.92;103780.66;5074836;28;5525;-62
2022/03/18 09:52:42;;;;;;;;;;;;;;;21.51;42.09;103780.28;5071713;27;4295;-60
2022/03/18 09:55:09;;;;;;;;;;;;;;;21.55;41.65;103777.72;5073572;28;4082;-59
2022/03/18 09:57:35;;;;;;;;;;;;;;;21.59;41.65;103791.75;5073245;28;4138;-59
2022/03/18 10:00:02;;;;;;;;;;;;;;;21.61;41.75;103789.06;5074676;28;4224;-61
2022/03/18 10:02:37;;;;;;;;;;;;;;;21.63;41.90;103787.09;5071799;28;5259;-61
2022/03/18 10:05:06;;;;;;;;;;;;;;;21.62;41.92;103776.91;5075060;28;4261;-60
2022/03/18 10:07:32;;;;;;;;;;;;;;;21.70;41.83;103779.75;5074634;28;4210;-49
2022/03/18 10:10:07;;;;;;;;;;;;;;;21.78;42.08;103782.56;5071949;28;4190;-59
2022/03/18 10:12:34;;;;;;;;;;;;;;;21.79;42.03;103784.13;5067278;28;4260;-56
2022/03/18 10:15:13;;;;;;;;;;;;;;;21.78;41.67;103776.78;5073631;28;5658;-57
2022/03/18 10:17:40;;;;;;;;;;;;;;;21.82;42.02;103786.56;5076171;28;5683;-57
2022/03/18 10:20:06;;;;;;;;;;;;;;;21.86;41.76;103780.41;5074954;28;6204;-58
2022/03/18 10:22:33;;;;;;;;;;;;;;;21.90;41.92;103792.28;5073578;28;4079;-56
2022/03/18 10:25:01;;;;;;;;;;;;;;;21.90;41.97;103787.28;5072712;28;4149;-58
2022/03/18 10:27:27;;;;;;;;;;;;;;;21.88;41.93;103778.44;5075220;28;4682;-57
2022/03/18 10:29:53;;;;;;;;;;;;;;;21.91;41.97;103788.03;5079683;28;4810;-57
2022/03/18 10:32:20;;;;;;;;;;;;;;;21.93;41.80;103780.31;5069665;28;5095;-56
2022/03/18 10:37:42;;;;;;;;;;;;;;;21.94;42.11;103776.09;5072291;28;5833;-60
2022/03/18 10:40:08;;;;;;;;;;;;;;;21.99;41.83;103780.09;5075037;28;4286;-59
2022/03/18 10:42:34;;;;;;;;;;;;;;;22.00;41.73;103777.97;5073464;28;4241;-59
2022/03/18 10:45:01;;;;;;;;;;;;;;;21.98;41.99;103774.91;5075816;28;4043;-58
2022/03/18 10:47:41;;;;;;;;;;;;;;;21.96;41.89;103772.59;5069098;27;4167;-57
2022/03/18 10:50:10;;;;;;;;;;;;;;;21.96;41.82;103778.38;5070631;27;4964;-57
2022/03/18 10:52:37;;;;;;;;;;;;;;;21.92;41.51;103786.69;5066522;28;4115;-60
2022/03/18 10:55:16;;;;;;;;;;;;;;;21.96;41.77;103789.91;5067164;28;4086;-61
2022/03/18 10:57:49;;;;;;;;;;;;;;;21.96;41.57;103787.03;5065206;28;4195;-61
2022/03/18 11:00:16;;;;;;;;;;;;;;;21.90;41.77;103786.53;5072749;28;4703;-59
2022/03/18 11:02:43;;;;;;;;;;;;;;;21.79;40.97;103787.75;5071622;28;5424;-58
2022/03/18 11:05:10;;;;;;;;;;;;;;;21.79;41.20;103787.00;5077963;28;4211;-60
2022/03/18 11:07:41;;;;;;;;;;;;;;;21.78;41.42;103785.44;5073885;28;4089;-61
2022/03/18 11:12:54;;;;;;;;;;;;;;;21.82;41.48;103791.59;5071172;28;4172;-59
2022/03/18 11:15:20;;;;;;;;;;;;;;;21.83;41.58;103787.31;5075228;28;5341;-60
2022/03/18 11:17:46;;;;;;;;;;;;;;;21.87;41.74;103787.69;5078417;28;4039;-60
2022/03/18 11:20:13;;;;;;;;;;;;;;;21.93;41.47;103791.09;5078415;28;5270;-60
2022/03/18 11:22:39;;;;;;;;;;;;;;;21.90;41.35;103787.28;5078081;28;4245;-61
2022/03/18 11:25:09;;;;;;;;;;;;;;;21.93;41.44;103780.31;5076430;28;6365;-62
2022/03/18 11:27:35;;;;;;;;;;;;;;;21.98;41.29;103769.91;5082037;28;4240;-60
2022/03/18 11:30:22;;;;;;;;;;;;;;;22.03;41.29;103777.53;5077040;28;5542;-63
2022/03/18 11:33:07;;;;;;;;;;;;;;;21.99;41.23;103780.09;5078404;28;4209;-61
2022/03/18 11:35:49;;;;;;;;;;;;;;;22.03;41.53;103771.78;5076545;28;4262;-60
2022/03/18 11:38:15;;;;;;;;;;;;;;;21.92;40.78;103772.25;5075194;27;4186;-61
2022/03/18 11:40:50;;;;;;;;;;;;;;;21.67;39.80;103767.28;5075514;28;4174;-61
2022/03/18 11:43:29;;;;;;;;;;;;;;;21.76;38.47;103771.59;5075017;28;5345;-60
2022/03/18 11:46:13;;;;;;;;;;;;;;;21.77;39.52;103767.38;5078717;28;4087;-63
2022/03/18 11:48:44;;;;;;;;;;;;;;;21.75;39.68;103765.06;5079325;28;4189;-62
2022/03/18 11:51:27;;;;;;;;;;;;;;;21.80;40.31;103771.22;5077517;28;4255;-62
2022/03/18 11:53:54;;;;;;;;;;;;;;;21.85;40.25;103767.31;5078819;28;4138;-62
2022/03/18 11:56:22;;;;;;;;;;;;;;;21.93;40.54;103768.03;5078184;28;4505;-61
2022/03/18 11:58:48;;;;;;;;;;;;;;;21.96;40.53;103766.84;5078826;28;4063;-63
2022/03/18 12:01:33;;;;;;;;;;;;;;;21.99;40.48;103757.00;5077786;28;4113;-62
2022/03/18 12:04:00;;;;;;;;;;;;;;;21.96;40.82;103755.28;5079107;28;4313;-60
2022/03/18 12:06:27;;;;;;;;;;;;;;;21.82;40.39;103746.19;5077147;28;5456;-61
2022/03/18 12:09:08;;;;;;;;;;;;;;;21.67;38.93;103755.75;5074166;28;5239;-61
2022/03/18 12:11:37;;;;;;;;;;;;;;;21.62;36.66;103765.38;5073654;28;4223;-59
2022/03/18 12:14:04;;;;;;;;;;;;;;;21.57;37.41;103749.06;5074153;28;4085;-59
2022/03/18 12:16:31;;;;;;;;;;;;;;;21.68;36.86;103757.25;5077913;28;4226;-60
2022/03/18 12:18:58;;;;;;;;;;;;;;;21.78;37.66;103750.84;5075931;28;4143;-59
2022/03/18 12:21:33;;;;;;;;;;;;;;;21.77;38.48;103757.97;5075915;28;4106;-58
2022/03/18 12:24:04;;;;;;;;;;;;;;;21.88;39.33;103749.59;5075552;28;4235;-60
2022/03/18 12:26:30;;;;;;;;;;;;;;;21.89;39.84;103747.47;5079748;28;4123;-61
2022/03/18 12:28:56;;;;;;;;;;;;;;;21.88;40.21;103754.59;5079609;28;4318;-61
2022/03/18 12:31:23;;;;;;;;;;;;;;;21.90;40.53;103751.91;5071609;28;4135;-62
2022/03/18 12:33:56;;;;;;;;;;;;;;;21.94;40.50;103755.13;5076071;28;4153;-62
2022/03/18 12:36:23;;;;;;;;;;;;;;;21.90;40.48;103757.66;5072187;27;4155;-58
2022/03/18 12:38:49;;;;;;;;;;;;;;;21.83;40.69;103747.72;5075899;28;4346;-59
2022/03/18 12:41:18;;;;;;;;;;;;;;;21.95;40.83;103754.53;5070223;28;4653;-59
2022/03/18 12:43:44;;;;;;;;;;;;;;;22.16;40.54;103762.78;5077901;28;4079;-58
2022/03/18 12:46:12;;;;;;;;;;;;;;;22.17;37.99;103746.25;5072289;28;4216;-57
2022/03/18 12:48:42;;;;;;;;;;;;;;;21.97;34.43;103745.28;5075228;28;4087;-60
2022/03/18 12:51:09;;;;;;;;;;;;;;;21.79;33.34;103763.91;5077022;28;4769;-61
2022/03/18 12:53:35;;;;;;;;;;;;;;;21.65;29.45;103749.78;5072224;28;4084;-61
2022/03/18 12:56:16;;;;;;;;;;;;;;;21.53;28.10;103754.47;5067077;28;5215;-60
2022/03/18 12:58:47;;;;;;;;;;;;;;;21.61;27.25;103749.44;5092628;28;4260;-61
2022/03/18 13:01:33;;;;;;;;;;;;;;;21.69;26.87;103758.81;5077555;28;5417;-61
2022/03/18 13:04:00;;;;;;;;;;;;;;;21.74;25.61;103757.78;5081055;28;4234;-61
2022/03/18 13:06:31;;;;;;;;;;;;;;;21.70;26.46;103756.69;5078168;28;4237;-60
2022/03/18 13:09:03;;;;;;;;;;;;;;;21.74;26.97;103752.03;5075164;28;4262;-57
2022/03/18 13:11:33;;;;;;;;;;;;;;;21.70;26.77;103748.78;5076141;28;4418;-61
2022/03/18 13:14:00;;;;;;;;;;;;;;;21.84;26.57;103751.38;5083618;27;4631;-61
2022/03/18 13:16:34;;;;;;;;;;;;;;;21.82;27.96;103749.06;5083233;28;4188;-61
2022/03/18 13:19:02;;;;;;;;;;;;;;;21.78;26.46;103747.94;5083771;28;4111;-62